createdAt,value
2023-04-23T00:00:54.227Z,62.11
2023-04-23T00:05:57.539Z,62.54
2023-04-23T00:10:59.447Z,63.61
2023-04-23T00:16:01.313Z,63.04
2023-04-23T00:21:02.891Z,62.54
2023-04-23T00:26:04.645Z,63.07
2023-04-23T00:31:06.591Z,62.18
2023-04-23T00:36:08.764Z,62.82
2023-04-23T00:41:11.154Z,63.57
2023-04-23T00:46:12.934Z,63.15
2023-04-23T00:51:16.941Z,63.62
2023-04-23T00:56:18.447Z,63.59
2023-04-23T01:01:21.499Z,63.66
2023-04-23T01:06:23.000Z,63.90
2023-04-23T01:11:24.619Z,63.47
2023-04-23T01:16:26.194Z,63.40
2023-04-23T01:21:29.322Z,64.60
2023-04-23T01:26:31.885Z,64.83
2023-04-23T01:31:34.123Z,65.26
2023-04-23T01:36:35.984Z,66.05
2023-04-23T01:41:37.544Z,67.25
2023-04-23T01:46:39.382Z,66.48
2023-04-23T01:51:42.848Z,67.76
2023-04-23T01:56:44.452Z,67.21
2023-04-23T02:01:47.089Z,67.64
2023-04-23T02:06:51.716Z,67.03
2023-04-23T02:11:53.693Z,67.32
2023-04-23T02:16:55.311Z,67.86
2023-04-23T02:21:56.830Z,67.51
2023-04-23T02:26:58.359Z,65.99
2023-04-23T02:32:00.047Z,66.04
2023-04-23T02:37:01.631Z,66.58
2023-04-23T02:42:03.263Z,65.47
2023-04-23T02:47:05.005Z,65.22
2023-04-23T02:52:06.843Z,65.04
2023-04-23T02:57:08.528Z,65.45
2023-04-23T03:02:10.167Z,65.44
2023-04-23T03:07:11.901Z,64.57
2023-04-23T03:12:13.378Z,65.68
2023-04-23T03:17:14.875Z,64.51
2023-04-23T03:22:16.448Z,63.98
2023-04-23T03:27:17.988Z,63.90
2023-04-23T03:32:19.632Z,63.59
2023-04-23T03:37:21.178Z,64.46
2023-04-23T03:42:22.726Z,64.39
2023-04-23T03:47:25.878Z,64.42
2023-04-23T03:52:28.420Z,65.23
2023-04-23T03:57:31.007Z,65.95
2023-04-23T04:03:02.367Z,66.09
2023-04-23T04:08:04.104Z,66.19
2023-04-23T04:13:05.547Z,67.10
2023-04-23T04:18:07.263Z,67.88
2023-04-23T04:23:08.685Z,68.38
2023-04-23T04:28:10.211Z,67.66
2023-04-23T04:33:11.689Z,68.07
2023-04-23T04:38:13.227Z,68.23
2023-04-23T04:43:15.017Z,68.25
2023-04-23T04:48:16.506Z,68.29
2023-04-23T04:53:18.053Z,68.18
2023-04-23T04:58:19.507Z,68.69
2023-04-23T05:03:21.643Z,68.46
2023-04-23T05:08:23.177Z,69.02
2023-04-23T05:13:24.620Z,68.76
2023-04-23T05:18:26.110Z,69.29
2023-04-23T05:23:27.650Z,68.90
2023-04-23T05:28:29.989Z,68.85
2023-04-23T05:33:39.241Z,69.05
2023-04-23T05:38:44.453Z,69.11
2023-04-23T05:43:45.909Z,69.28
2023-04-23T05:48:47.374Z,67.88
2023-04-23T05:53:48.918Z,68.02
2023-04-23T05:58:50.414Z,66.83
2023-04-23T06:03:52.086Z,67.77
2023-04-23T06:08:53.899Z,67.05
2023-04-23T06:13:55.314Z,66.46
2023-04-23T06:18:56.919Z,67.01
2023-04-23T06:23:58.413Z,66.73
2023-04-23T06:28:59.959Z,67.27
2023-04-23T06:34:08.554Z,66.76
2023-04-23T06:39:10.033Z,66.61
2023-04-23T06:44:11.576Z,66.83
2023-04-23T06:49:22.716Z,66.25
2023-04-23T06:54:24.183Z,65.87
2023-04-23T06:59:25.872Z,66.20
2023-04-23T07:04:30.498Z,66.91
2023-04-23T07:09:32.051Z,66.74
2023-04-23T07:14:33.602Z,66.98
2023-04-23T07:19:35.149Z,66.33
2023-04-23T07:24:36.657Z,65.74
2023-04-23T07:29:38.218Z,66.21
2023-04-23T07:34:39.997Z,66.00
2023-04-23T07:39:44.013Z,65.13
2023-04-23T07:44:45.865Z,65.84
2023-04-23T07:49:47.291Z,66.28
2023-04-23T07:54:48.734Z,63.03
2023-04-23T07:59:50.224Z,62.20
2023-04-23T08:04:52.805Z,63.98
2023-04-23T08:09:54.415Z,61.70
2023-04-23T08:14:55.861Z,58.96
2023-04-23T08:20:05.097Z,58.58
2023-04-23T08:25:06.951Z,59.13
2023-04-23T08:30:08.903Z,57.05
2023-04-23T08:35:10.520Z,57.84
2023-04-23T08:40:12.562Z,58.08
2023-04-23T08:45:14.270Z,60.03
2023-04-23T08:50:18.398Z,57.26
2023-04-23T08:55:21.091Z,55.15
2023-04-23T09:00:22.693Z,53.78
2023-04-23T09:05:24.256Z,53.48
2023-04-23T09:10:25.758Z,51.65
2023-04-23T09:15:27.316Z,51.96
2023-04-23T09:20:28.805Z,52.03
2023-04-23T09:25:30.320Z,50.26
2023-04-23T09:30:31.834Z,52.27
2023-04-23T09:35:33.545Z,52.36
2023-04-23T09:40:35.046Z,51.11
2023-04-23T09:45:36.575Z,50.88
2023-04-23T09:50:40.276Z,51.18
2023-04-23T09:55:44.576Z,48.44
2023-04-23T10:00:46.058Z,48.15
2023-04-23T10:06:00.512Z,46.94
2023-04-23T10:11:17.715Z,47.13
2023-04-23T10:16:25.510Z,45.54
2023-04-23T10:21:46.228Z,46.35
2023-04-23T10:26:58.412Z,45.67
2023-04-23T10:32:01.890Z,46.98
2023-04-23T10:37:03.328Z,44.42
2023-04-23T10:42:05.766Z,45.16
2023-04-23T10:47:11.552Z,45.86
2023-04-23T10:52:20.636Z,46.12
2023-04-23T10:57:23.897Z,44.48
2023-04-23T11:02:26.073Z,44.50
2023-04-23T11:07:32.566Z,42.53
2023-04-23T11:12:34.081Z,44.46
2023-04-23T11:17:35.561Z,43.44
2023-04-23T11:22:44.812Z,42.92
2023-04-23T11:27:47.831Z,43.45
2023-04-23T11:32:51.111Z,43.06
2023-04-23T11:37:52.739Z,44.33
2023-04-23T11:42:54.527Z,42.89
2023-04-23T11:48:01.029Z,43.79
2023-04-23T11:53:07.170Z,43.59
2023-04-23T11:58:08.882Z,41.14
2023-04-23T12:03:10.534Z,41.55
2023-04-23T12:08:16.019Z,40.37
2023-04-23T12:13:28.944Z,40.27
2023-04-23T12:18:31.961Z,43.86
2023-04-23T12:23:33.533Z,44.74
2023-04-23T12:28:35.012Z,43.80
2023-04-23T12:33:36.538Z,45.53
2023-04-23T12:38:38.054Z,43.00
2023-04-23T12:43:39.534Z,42.74
2023-04-23T12:48:41.032Z,42.62
2023-04-23T12:53:42.500Z,41.93
2023-04-23T12:58:43.923Z,44.29
2023-04-23T13:03:45.515Z,44.29
2023-04-23T13:08:46.987Z,43.87
2023-04-23T13:13:48.395Z,44.37
2023-04-23T13:18:50.135Z,45.03
2023-04-23T13:23:51.565Z,42.80
2023-04-23T13:28:52.987Z,44.46
2023-04-23T13:33:54.601Z,43.60
2023-04-23T13:38:56.150Z,45.53
2023-04-23T13:43:57.636Z,45.08
2023-04-23T13:48:59.120Z,45.56
2023-04-23T13:54:01.034Z,48.36
2023-04-23T13:59:18.206Z,48.89
2023-04-23T14:04:21.622Z,54.32
2023-04-23T14:09:23.126Z,54.81
2023-04-23T14:14:24.853Z,54.75
2023-04-23T14:19:26.279Z,58.18
2023-04-23T14:24:33.061Z,57.73
2023-04-23T14:29:51.184Z,61.15
2023-04-23T14:34:52.793Z,60.96
2023-04-23T14:39:54.328Z,59.57
2023-04-23T14:44:58.645Z,60.79
2023-04-23T14:50:00.258Z,58.57
2023-04-23T14:55:01.716Z,61.05
2023-04-23T15:00:04.923Z,60.36
2023-04-23T15:05:08.229Z,59.04
2023-04-23T15:10:10.146Z,58.23
2023-04-23T15:15:27.793Z,59.70
2023-04-23T15:20:35.142Z,59.60
2023-04-23T15:25:36.844Z,60.17
2023-04-23T15:30:38.414Z,59.14
2023-04-23T15:35:39.885Z,61.48
2023-04-23T15:40:41.422Z,61.17
2023-04-23T15:45:43.629Z,64.21
2023-04-23T15:50:45.728Z,65.40
2023-04-23T15:55:47.203Z,62.10
2023-04-23T16:00:48.752Z,60.61
2023-04-23T16:05:50.319Z,60.92
2023-04-23T16:10:51.869Z,60.90
2023-04-23T16:15:53.633Z,61.71
2023-04-23T16:20:55.143Z,62.62
2023-04-23T16:25:56.581Z,64.23
2023-04-23T16:30:58.051Z,64.27
2023-04-23T16:35:59.566Z,64.73
2023-04-23T16:41:01.043Z,66.04
2023-04-23T16:46:02.597Z,66.25
2023-04-23T16:51:04.325Z,66.60
2023-04-23T16:56:06.103Z,65.49
2023-04-23T17:01:07.636Z,65.70
2023-04-23T17:06:31.273Z,66.31
2023-04-23T17:11:32.916Z,64.16
2023-04-23T17:16:34.439Z,64.13
2023-04-23T17:21:36.086Z,62.36
2023-04-23T17:26:37.578Z,61.71
2023-04-23T17:31:39.320Z,63.56
2023-04-23T17:36:40.788Z,63.41
2023-04-23T17:41:42.259Z,63.03
2023-04-23T17:46:43.698Z,62.50
2023-04-23T17:51:45.218Z,61.90
2023-04-23T17:56:47.948Z,63.18
2023-04-23T18:01:49.621Z,58.86
2023-04-23T18:06:51.113Z,58.24
2023-04-23T18:11:54.467Z,60.00
2023-04-23T18:16:56.025Z,60.86
2023-04-23T18:21:57.612Z,60.67
2023-04-23T18:26:59.056Z,60.11
2023-04-23T18:32:00.647Z,61.48
2023-04-23T18:37:03.742Z,63.09
2023-04-23T18:42:05.240Z,63.31
2023-04-23T18:47:06.758Z,64.37
2023-04-23T18:52:08.296Z,64.14
2023-04-23T18:57:10.239Z,64.22
2023-04-23T19:02:18.699Z,61.64
2023-04-23T19:07:26.265Z,63.36
2023-04-23T19:12:27.707Z,64.33
2023-04-23T19:17:29.173Z,65.13
2023-04-23T19:22:30.688Z,64.46
2023-04-23T19:27:32.179Z,63.79
2023-04-23T19:32:33.708Z,63.23
2023-04-23T19:37:35.243Z,62.62
2023-04-23T19:42:36.758Z,62.24
2023-04-23T19:47:38.232Z,62.00
2023-04-23T19:52:39.695Z,61.80
2023-04-23T19:57:41.111Z,62.28
2023-04-23T20:02:43.014Z,61.85
2023-04-23T20:07:45.073Z,61.88
2023-04-23T20:12:46.576Z,61.23
2023-04-23T20:17:48.105Z,61.13
2023-04-23T20:22:49.627Z,61.26
2023-04-23T20:27:51.133Z,61.35
2023-04-23T20:32:52.644Z,60.84
2023-04-23T20:37:54.250Z,60.74
2023-04-23T20:42:55.684Z,60.08
2023-04-23T20:47:57.132Z,60.34
2023-04-23T20:52:58.572Z,60.48
2023-04-23T20:58:00.011Z,60.67
2023-04-23T21:03:01.540Z,60.75
2023-04-23T21:08:03.266Z,60.69
2023-04-23T21:13:06.864Z,61.77
2023-04-23T21:18:08.412Z,61.53
2023-04-23T21:23:10.157Z,62.03
2023-04-23T21:28:11.680Z,61.54
2023-04-23T21:33:13.691Z,62.21
2023-04-23T21:38:15.164Z,61.21
2023-04-23T21:43:16.738Z,61.14
2023-04-23T21:48:18.257Z,61.57
2023-04-23T21:53:19.835Z,62.48
2023-04-23T21:58:21.328Z,62.24
2023-04-23T22:03:37.588Z,61.82
2023-04-23T22:08:40.657Z,61.67
2023-04-23T22:13:42.228Z,62.39
2023-04-23T22:18:43.693Z,62.36
2023-04-23T22:23:45.179Z,63.29
2023-04-23T22:28:46.721Z,63.43
2023-04-23T22:33:48.334Z,64.04
2023-04-23T22:38:49.816Z,64.07
2023-04-23T22:43:51.229Z,64.11
2023-04-23T22:48:52.725Z,64.21
2023-04-23T22:53:54.144Z,63.93
2023-04-23T22:58:55.683Z,62.99
2023-04-23T23:03:57.487Z,63.37
2023-04-23T23:08:59.082Z,63.86
2023-04-23T23:14:00.572Z,63.56
2023-04-23T23:19:02.047Z,62.78
2023-04-23T23:24:03.633Z,61.43
2023-04-23T23:29:05.136Z,61.28
2023-04-23T23:34:06.655Z,62.25
2023-04-23T23:39:08.183Z,62.85
2023-04-23T23:44:09.608Z,63.39
2023-04-23T23:49:11.213Z,62.88
2023-04-23T23:54:12.797Z,61.08
2023-04-23T23:59:14.268Z,59.83
